Nearby METAR Reports

 

KRSP - Nsf Thurmont, Maryland, USA
Distance from station: SE 8mi, 13km
Updated: Sun, 29-May-2022 7:54am EDT
Clear
Clear
 Wind from varies
Wind: varies 3 mph , 6 km/h
Temperature: 61°F , 16°C
Dew Point: 52°F , 11°C
Humidity: 72%
Barometer: 30.11 inHg , 1019.6 hPa
Clouds: Clear
2022/05/29 11:54 KRSP 291154Z AUTO VRB03KT CLR 16/11 A3011 RMK AO2 SLP195 T01610111 10161 20128 53025 $
KHGR - Hagerstown, Maryland, USA
Distance from station: WSW 10mi, 16km
Updated: Sun, 29-May-2022 7:53am EDT
Clear
Clear
 Wind from ENE
Wind: ENE 3 mph , 6 km/h
Temperature: 63°F , 17°C
Dew Point: 57°F , 14°C
Humidity: 83%
Barometer: 30.08 inHg , 1018.6 hPa
Clouds: Clear
Visibility: 10 miles , 16 km
2022/05/29 11:53 KHGR 291153Z 07003KT 10SM CLR 17/14 A3008 RMK AO2 SLP193 T01720139 10172 20139 51023
KFDK - Frederick, Maryland, USA
Distance from station: SSE 25mi, 40km
Updated: Sun, 29-May-2022 7:47am EDT
Clear
Clear
 Wind from calm
Wind: Calm
Temperature: 63°F , 17°C
Dew Point: 61°F , 16°C
Humidity: 94%
Barometer: 30.09 inHg , 1019 hPa
Clouds: Clear
Visibility: 10 miles , 16 km
2022/05/29 11:47 KFDK 291147Z 00000KT 10SM CLR 17/16 A3009
 
KDMW - Carroll Cnty, Maryland, USA
Distance from station: ESE 31mi, 50km
Updated: Sun, 29-May-2022 7:55am EDT
Clear
Clear
 Wind from calm
Wind: Calm
Temperature: 66°F , 19°C
Dew Point: 57°F , 14°C
Humidity: 73%
Barometer: 30.09 inHg , 1019 hPa
Clouds: Clear
Visibility: 10 miles , 16 km
2022/05/29 11:55 KDMW 291155Z AUTO 00000KT 10SM CLR 19/14 A3009 RMK AO2 LTG DSNT SE
KMRB - Martinsburg, West Virginia, USA
Distance from station: SW 33mi, 53km
Updated: Sun, 29-May-2022 7:53am EDT
Clear
Clear
 Wind from SE
Wind: SE 5 mph , 7 km/h
Temperature: 61°F , 16°C
Dew Point: 57°F , 14°C
Humidity: 88%
Barometer: 30.08 inHg , 1018.6 hPa
Clouds: Clear
Visibility: 10 miles , 16 km
2022/05/29 11:53 KMRB 291153Z AUTO 13004KT 10SM CLR 16/14 A3008 RMK AO2 SLP183 T01610139 10161 20122 53021
KTHV - York, Pennsylvania, USA
Distance from station: ENE 37mi, 60km
Updated: Sun, 29-May-2022 7:53am EDT
Clear
Clear
 Wind from calm
Wind: Calm
Temperature: 64°F , 18°C
Dew Point: 57°F , 14°C
Humidity: 78%
Barometer: 30.08 inHg , 1018.6 hPa
Clouds: Clear
Visibility: 10 miles , 16 km
2022/05/29 11:53 KTHV 291153Z AUTO 00000KT 10SM CLR 18/14 A3008 RMK AO2 SLP185 T01830139 10183 20117 53023
 
KGAI - Gaithersburg, Maryland, USA
Distance from station: SSE 45mi, 72km
Updated: Sun, 29-May-2022 7:56am EDT
Clear
Clear
 Wind from calm
Wind: Calm
Temperature: 64°F , 18°C
Dew Point: 59°F , 15°C
Humidity: 83%
Barometer: 30.10 inHg , 1019.3 hPa
Clouds: Clear
Visibility: 10 miles , 16 km
2022/05/29 11:56 KGAI 291156Z AUTO 00000KT 10SM CLR 18/15 A3010 RMK AO2 SLP202 T01780150 10178 20128 53023
KJYO - Leesburg/Godfrey, Virginia, USA
Distance from station: S 47mi, 75km
Updated: Sun, 29-May-2022 8:15am EDT
Clear
Clear
 Wind from WNW
Wind: WNW 3 mph , 6 km/h
Temperature: 68°F , 20°C
Dew Point: 61°F , 16°C
Humidity: 78%
Barometer: 30.10 inHg , 1019.3 hPa
Clouds: Clear
Visibility: 10 miles , 16 km
2022/05/29 12:15 KJYO 291215Z AUTO 29003KT 10SM CLR 20/16 A3010 RMK AO2
KCXY - Harrisburg, Pennsylvania, USA
Distance from station: NE 50mi, 80km
Updated: Sun, 29-May-2022 7:56am EDT
Clear
Clear
 Wind from WNW
Wind: WNW 3 mph , 6 km/h
Temperature: 68°F , 20°C
Dew Point: 55°F , 13°C
Humidity: 64%
Barometer: 30.08 inHg , 1018.6 hPa
Clouds: Clear
Visibility: 10 miles , 16 km
2022/05/29 11:56 KCXY 291156Z 30003KT 10SM CLR 20/13 A3008 RMK AO2 SLP185 T02000133 10200 20144 53026
 
KMDT - Middletown, Pennsylvania, USA
Distance from station: NE 52mi, 84km
Updated: Sun, 29-May-2022 7:56am EDT
Partly cloudy
Partly cloudy
 Wind from NW
Wind: NW 7 mph , 11 km/h
Temperature: 64°F , 18°C
Dew Point: 55°F , 13°C
Humidity: 73%
Barometer: 30.07 inHg , 1018.3 hPa
Clouds: Partly cloudy
Visibility: 10 miles , 16 km
Cloud details: Few Clouds 4000 ft
Few Clouds 8000 ft
Partly cloudy 25000 ft
2022/05/29 11:56 KMDT 291156Z 31006KT 10SM FEW040 FEW080 SCT250 18/13 A3007 RMK AO2 SLP181 T01830128 10183 20150 51026
KOKV - Winchester Rgnl, Virginia, USA
Distance from station: SW 53mi, 85km
Updated: Sun, 29-May-2022 8:15am EDT
Partly cloudy
Partly cloudy
 Wind from calm
Wind: Calm
Temperature: 61°F , 16°C
Dew Point: 57°F , 14°C
Humidity: 88%
Barometer: 30.08 inHg , 1018.6 hPa
Clouds: Partly cloudy
Visibility: 10 miles , 16 km
Cloud details: Partly cloudy 7000 ft
2022/05/29 12:15 KOKV 291215Z AUTO 00000KT 10SM SCT070 16/14 A3008 RMK AO2
KAOO - Altoona, Pennsylvania, USA
Distance from station: NW 56mi, 90km
Updated: Sun, 29-May-2022 7:53am EDT
Clear
Clear
 Wind from calm
Wind: Calm
Temperature: 61°F , 16°C
Dew Point: 54°F , 12°C
Humidity: 77%
Barometer: 30.10 inHg , 1019.3 hPa
Clouds: Clear
Visibility: 10 miles , 16 km
2022/05/29 11:53 KAOO 291153Z AUTO 00000KT 10SM CLR 16/12 A3010 RMK AO2 SLP188 T01560117 10156 20111 51019
 
KIAD - Wash Dc/Dulles, Virginia, USA
Distance from station: S 56mi, 90km
Updated: Sun, 29-May-2022 7:52am EDT
Few Clouds
Few Clouds
 Wind from NW
Wind: NW 5 mph , 7 km/h
Temperature: 66°F , 19°C
Dew Point: 59°F , 15°C
Humidity: 78%
Barometer: 30.08 inHg , 1018.6 hPa
Clouds: Few Clouds
Visibility: 10 miles , 16 km
Cloud details: Few Clouds 6000 ft
Few Clouds 8000 ft
Few Clouds 25000 ft
2022/05/29 11:52 KIAD 291152Z 32004KT 10SM FEW060 FEW080 FEW250 19/15 A3008 RMK AO2 SLP184 T01940150 10194 20133 52022
KHMZ - Bedford, Pennsylvania, USA
Distance from station: WNW 56mi, 91km
Updated: Sun, 29-May-2022 7:55am EDT
Fog, Overcast
Fog, Overcast
 Wind from calm
Wind: Calm
Temperature: 52°F , 11°C
Dew Point: 52°F , 11°C
Humidity: 100%
Barometer: 30.10 inHg , 1019.3 hPa
Summary: Fog
Clouds: Overcast
Visibility: 1/4 mile , 0.4 km
Cloud details: Overcast 100 ft
2022/05/29 11:55 KHMZ 291155Z AUTO 00000KT 1/4SM FG OVC001 11/11 A3010 RMK AO2 T01100106 10110 20095
KBWI - Balto/Wash Intl, Maryland, USA
Distance from station: SE 61mi, 98km
Updated: Sun, 29-May-2022 7:54am EDT
Few Clouds
Few Clouds
 Wind from NW
Wind: NW 5 mph , 7 km/h
Temperature: 70°F , 21°C
Dew Point: 59°F , 15°C
Humidity: 69%
Barometer: 30.06 inHg , 1017.9 hPa
Clouds: Few Clouds
Visibility: 10 miles , 16 km
Cloud details: Few Clouds 25000 ft
2022/05/29 11:54 KBWI 291154Z 31004KT 10SM FEW250 21/15 A3006 RMK AO2 SLP177 T02060150 10206 20150 51023
 
KFME - Fort Meade, Maryland, USA
Distance from station: SE 62mi, 100km
Updated: Sun, 29-May-2022 7:59am EDT
Clear
Clear
 Wind from calm
Wind: Calm
Temperature: 63°F , 17°C
Dew Point: 63°F , 17°C
Humidity: 100%
Barometer: 30.09 inHg , 1019 hPa
Clouds: Clear
Visibility: 10 miles , 16 km
2022/05/29 11:59 KFME 291159Z AUTO 00000KT 10SM CLR 17/17 A3009 RMK AO1
KCGS - College Park, Maryland, USA
Distance from station: SE 62mi, 101km
Updated: Sun, 29-May-2022 7:59am EDT
Clear
Clear
 Wind from calm
Wind: Calm
Temperature: 64°F , 18°C
Dew Point: 63°F , 17°C
Humidity: 94%
Barometer: 30.07 inHg , 1018.3 hPa
Clouds: Clear
Visibility: 10 miles , 16 km
2022/05/29 11:59 KCGS 291159Z AUTO 00000KT 10SM CLR 18/17 A3007 RMK AO1 T01820170
KCBE - Cumberland Reg, Maryland, USA
Distance from station: W 65mi, 105km
Updated: Sun, 29-May-2022 7:55am EDT
Clear
Clear
 Wind from calm
Wind: Calm
Temperature: 59°F , 15°C
Dew Point: 55°F , 13°C
Humidity: 88%
Barometer: 30.15 inHg , 1021 hPa
Clouds: Clear
Visibility: 10 miles , 16 km
2022/05/29 11:55 KCBE 291155Z AUTO 00000KT 10SM CLR 15/13 A3015 RMK AO2 T01500130 10152 20112
 
KRVL - Reedsville, Pennsylvania, USA
Distance from station: N 65mi, 105km
Updated: Sun, 29-May-2022 8:15am EDT
Clear
Clear
 Wind from calm
Wind: Calm
Temperature: 59°F , 15°C
Dew Point: 59°F , 15°C
Humidity: 100%
Barometer: 30.09 inHg , 1019 hPa
Clouds: Clear
Visibility: 10 miles , 16 km
2022/05/29 12:15 KRVL 291215Z AUTO 00000KT 10SM CLR 15/15 A3009 RMK AO2
KMTN - Baltimore/Martin, Maryland, USA
Distance from station: ESE 67mi, 108km
Updated: Sun, 29-May-2022 7:54am EDT
Clear
Clear
 Wind from calm
Wind: Calm
Temperature: 68°F , 20°C
Dew Point: 61°F , 16°C
Humidity: 78%
Barometer: 30.08 inHg , 1018.6 hPa
Clouds: Clear
Visibility: 10 miles , 16 km
2022/05/29 11:54 KMTN 291154Z 00000KT 10SM CLR 20/16 A3008